Time;durP1;ratioP1;P1;durP2;ratioP2;P2;SDS_P1;SDS_P2;PMS_P1;PMS_P2;Temp;Humidity;BMP_temperature;BMP_pressure;BME280_temperature;BME280_humidity;BME280_pressure;Samples;Min_cycle;Max_cycle;Signal;HPM_P1;HPM_P2
2022/09/07 00:02:25;;;;;;;3.70;3.40;;;21.20;99.90;;;;;;10536152;28;20215;-79
2022/09/07 00:07:29;;;;;;;4.03;3.73;;;21.20;99.90;;;;;;10537334;28;20566;-80
2022/09/07 00:12:31;;;;;;;4.33;3.50;;;21.20;99.90;;;;;;10535783;28;20224;-79
2022/09/07 00:17:33;;;;;;;5.83;3.50;;;21.20;99.90;;;;;;10519289;28;20338;-79
2022/09/07 00:22:36;;;;;;;4.67;3.30;;;21.30;99.90;;;;;;10536833;28;20204;-79
2022/09/07 00:27:39;;;;;;;4.13;3.73;;;21.30;99.90;;;;;;10530450;28;20249;-79
2022/09/07 00:32:41;;;;;;;4.47;3.60;;;21.30;99.90;;;;;;10536405;28;20234;-79
2022/09/07 00:37:44;;;;;;;6.97;3.80;;;21.30;99.90;;;;;;10534814;28;20256;-79
2022/09/07 00:42:46;;;;;;;4.70;3.70;;;21.30;99.90;;;;;;10527066;28;20261;-79
2022/09/07 00:47:56;;;;;;;3.90;3.70;;;21.40;99.90;;;;;;10536211;28;20199;-79
2022/09/07 00:53:03;;;;;;;5.30;3.90;;;21.40;99.90;;;;;;10537442;28;20711;-80
2022/09/07 00:58:06;;;;;;;4.17;3.47;;;21.50;99.90;;;;;;10529334;28;20204;-79
2022/09/07 01:03:11;;;;;;;4.40;3.60;;;21.50;99.90;;;;;;10519441;28;20222;-79
2022/09/07 01:08:15;;;;;;;4.57;4.20;;;21.50;99.90;;;;;;10542960;28;20196;-80
2022/09/07 01:13:17;;;;;;;4.20;3.80;;;21.50;99.90;;;;;;10536699;28;20255;-79
2022/09/07 01:18:27;;;;;;;7.47;4.17;;;21.50;99.90;;;;;;10537535;28;20276;-80
2022/09/07 01:24:15;;;;;;;4.10;3.70;;;21.60;99.90;;;;;;10547165;28;20223;-79
2022/09/07 01:29:23;;;;;;;3.93;3.63;;;21.60;99.90;;;;;;10543965;28;20264;-80
2022/09/07 01:34:26;;;;;;;3.97;3.70;;;21.60;99.90;;;;;;10542950;28;20228;-80
2022/09/07 01:39:34;;;;;;;4.30;3.53;;;21.70;99.90;;;;;;10543517;28;20603;-80
2022/09/07 01:44:41;;;;;;;4.00;3.40;;;21.80;99.90;;;;;;10543774;28;20650;-79
2022/09/07 01:49:50;;;;;;;4.03;3.70;;;21.80;99.90;;;;;;10542828;28;20643;-79
2022/09/07 01:54:57;;;;;;;6.67;4.43;;;21.80;99.90;;;;;;10546523;28;20216;-79
2022/09/07 02:00:07;;;;;;;6.90;4.60;;;21.80;99.90;;;;;;10540255;28;20227;-79
2022/09/07 02:05:19;;;;;;;6.30;3.87;;;21.90;99.90;;;;;;10540180;28;20239;-79
2022/09/07 02:10:26;;;;;;;4.67;4.20;;;21.90;99.90;;;;;;10544857;28;20543;-79
2022/09/07 02:15:38;;;;;;;4.20;3.90;;;21.90;99.90;;;;;;10498240;22;20598;-80
2022/09/07 02:20:46;;;;;;;4.70;4.40;;;21.90;99.90;;;;;;10463997;28;20198;-79
2022/09/07 02:25:52;;;;;;;5.57;5.00;;;21.90;99.90;;;;;;10496765;28;20220;-80
2022/09/07 02:30:56;;;;;;;6.90;4.50;;;21.90;99.90;;;;;;10503030;28;20251;-80
2022/09/07 02:35:58;;;;;;;4.60;4.20;;;21.90;99.90;;;;;;10488573;28;20248;-79
2022/09/07 02:41:01;;;;;;;5.00;4.53;;;21.90;99.90;;;;;;10498411;28;20193;-80
2022/09/07 02:46:20;;;;;;;4.90;4.27;;;22.00;99.90;;;;;;10477071;28;20221;-79
2022/09/07 02:51:31;;;;;;;6.07;4.87;;;21.90;99.90;;;;;;10503518;28;20333;-80
2022/09/07 02:56:50;;;;;;;4.97;4.50;;;21.90;99.90;;;;;;10509172;28;20207;-80
2022/09/07 03:02:01;;;;;;;5.40;5.00;;;21.90;99.90;;;;;;10507675;28;20243;-79
2022/09/07 03:07:08;;;;;;;10.20;5.53;;;21.90;99.90;;;;;;10507954;28;20593;-80
2022/09/07 03:12:11;;;;;;;5.50;5.20;;;21.80;99.90;;;;;;10490293;28;20278;-80
2022/09/07 03:17:15;;;;;;;6.80;4.80;;;21.80;99.90;;;;;;10506207;28;20207;-80
2022/09/07 03:22:17;;;;;;;4.80;4.40;;;21.80;99.90;;;;;;10508646;28;20213;-80
2022/09/07 03:27:19;;;;;;;5.80;5.40;;;21.80;99.90;;;;;;10506974;28;20196;-80
2022/09/07 03:32:22;;;;;;;5.57;5.03;;;21.70;99.90;;;;;;10505518;28;20277;-80
2022/09/07 03:37:25;;;;;;;7.20;5.90;;;21.70;99.90;;;;;;10499310;28;20192;-80
2022/09/07 03:42:27;;;;;;;5.90;5.30;;;21.60;99.90;;;;;;10496943;28;20295;-80
2022/09/07 03:47:31;;;;;;;5.70;5.00;;;21.50;99.90;;;;;;10497392;28;20250;-80
2022/09/07 03:52:34;;;;;;;6.23;5.63;;;21.40;99.90;;;;;;10503246;28;20228;-80
2022/09/07 03:57:36;;;;;;;5.87;5.37;;;21.30;99.90;;;;;;10492113;28;20200;-80
2022/09/07 04:02:40;;;;;;;6.50;6.00;;;21.30;99.90;;;;;;10498266;28;20223;-80
2022/09/07 04:07:42;;;;;;;6.83;5.80;;;21.20;99.90;;;;;;10495320;28;20201;-80
2022/09/07 04:12:45;;;;;;;7.20;6.50;;;21.10;99.90;;;;;;10484086;28;20224;-80
2022/09/07 04:17:48;;;;;;;6.13;5.70;;;21.00;99.90;;;;;;10502340;28;20204;-80
2022/09/07 04:22:50;;;;;;;5.00;4.70;;;21.00;99.90;;;;;;10483156;28;20762;-80
2022/09/07 04:27:53;;;;;;;6.63;5.87;;;21.00;99.90;;;;;;10495322;28;20192;-80
2022/09/07 04:32:56;;;;;;;8.20;6.60;;;20.90;99.90;;;;;;10484626;28;20228;-80
2022/09/07 04:37:58;;;;;;;6.53;6.23;;;20.90;99.90;;;;;;10501909;28;20212;-80
2022/09/07 04:43:01;;;;;;;5.90;4.00;;;20.80;99.90;;;;;;10500151;28;20212;-79
2022/09/07 04:48:05;;;;;;;7.87;6.30;;;20.80;99.90;;;;;;10502620;28;20263;-79
2022/09/07 04:53:07;;;;;;;6.63;6.30;;;20.80;99.90;;;;;;10505664;28;20246;-79
2022/09/07 04:58:09;;;;;;;4.87;4.57;;;20.80;99.90;;;;;;10498681;28;20208;-79
2022/09/07 05:03:13;;;;;;;6.40;5.90;;;20.70;99.90;;;;;;10495351;28;20220;-80
2022/09/07 05:08:15;;;;;;;10.10;5.80;;;20.70;99.90;;;;;;10501024;28;20246;-80
2022/09/07 05:13:17;;;;;;;6.23;5.83;;;20.60;99.90;;;;;;10489543;28;20216;-80
2022/09/07 05:18:21;;;;;;;6.80;6.30;;;20.60;99.90;;;;;;10485370;28;20680;-80
2022/09/07 05:23:23;;;;;;;6.03;5.63;;;20.60;99.90;;;;;;10492414;28;20255;-80
2022/09/07 05:28:25;;;;;;;4.70;4.30;;;20.60;99.90;;;;;;10481494;28;20204;-80
2022/09/07 05:33:28;;;;;;;6.33;5.83;;;20.60;99.90;;;;;;10451731;28;20239;-80
2022/09/07 05:38:31;;;;;;;5.83;5.30;;;20.60;99.90;;;;;;10464982;28;20199;-80
2022/09/07 05:43:33;;;;;;;6.80;6.20;;;20.60;99.90;;;;;;10495783;28;20217;-80
2022/09/07 05:48:37;;;;;;;7.40;6.70;;;20.60;99.90;;;;;;10493417;28;20683;-80
2022/09/07 05:53:40;;;;;;;6.47;6.17;;;20.60;99.90;;;;;;10485629;28;20233;-80
2022/09/07 05:58:43;;;;;;;8.90;7.93;;;20.70;99.90;;;;;;10470547;28;20204;-80
2022/09/07 06:03:46;;;;;;;7.17;6.43;;;20.70;99.90;;;;;;10488099;28;20602;-80
2022/09/07 06:08:51;;;;;;;8.97;6.70;;;20.80;99.90;;;;;;10476201;28;20219;-80
2022/09/07 06:13:53;;;;;;;6.77;4.73;;;20.80;99.90;;;;;;10493059;28;20221;-80
2022/09/07 06:18:57;;;;;;;6.67;5.80;;;20.90;99.90;;;;;;10481798;28;20347;-80
2022/09/07 06:23:59;;;;;;;7.03;5.77;;;20.90;99.90;;;;;;10497331;28;20220;-80
2022/09/07 06:29:02;;;;;;;6.50;6.10;;;21.20;99.90;;;;;;10500370;28;20201;-80
2022/09/07 06:34:06;;;;;;;6.67;6.07;;;21.30;99.90;;;;;;10497670;28;20216;-80
2022/09/07 06:39:09;;;;;;;6.13;5.63;;;21.30;99.90;;;;;;10500448;28;20234;-80
2022/09/07 06:44:11;;;;;;;5.97;5.43;;;21.40;99.90;;;;;;10505606;28;20235;-80
2022/09/07 06:49:15;;;;;;;7.07;6.20;;;21.50;99.90;;;;;;10502625;28;20200;-80
2022/09/07 06:54:17;;;;;;;5.90;5.50;;;21.60;99.90;;;;;;10501446;28;20216;-80
2022/09/07 06:59:20;;;;;;;7.10;5.90;;;21.80;99.90;;;;;;10502405;28;20215;-80
2022/09/07 07:04:23;;;;;;;7.90;5.60;;;22.00;99.90;;;;;;10479468;28;20275;-81
2022/09/07 07:09:25;;;;;;;5.50;5.03;;;22.20;99.90;;;;;;10495452;28;20295;-80
2022/09/07 07:14:27;;;;;;;6.23;5.83;;;22.30;99.90;;;;;;10501173;28;20223;-80
2022/09/07 07:19:31;;;;;;;6.73;6.23;;;22.30;99.90;;;;;;10497048;28;20208;-80
2022/09/07 07:24:33;;;;;;;9.17;7.93;;;22.30;99.90;;;;;;10485855;28;20266;-80
2022/09/07 07:29:35;;;;;;;5.93;5.37;;;22.30;99.90;;;;;;10498335;28;20192;-80
2022/09/07 07:34:39;;;;;;;6.70;6.20;;;22.20;99.90;;;;;;10496397;28;20252;-80
2022/09/07 07:39:41;;;;;;;6.87;6.27;;;22.20;99.90;;;;;;10490377;28;20196;-80
2022/09/07 07:44:43;;;;;;;7.30;6.53;;;22.20;99.90;;;;;;10497527;28;20212;-80
2022/09/07 07:49:47;;;;;;;7.27;5.67;;;22.20;99.90;;;;;;10504962;28;20526;-80
2022/09/07 07:54:49;;;;;;;6.40;5.80;;;22.30;99.90;;;;;;10493929;28;20227;-80
2022/09/07 07:59:51;;;;;;;8.03;5.57;;;22.40;99.90;;;;;;10489203;28;20205;-80
2022/09/07 08:04:55;;;;;;;8.73;6.60;;;22.50;99.90;;;;;;10501450;28;20225;-80
2022/09/07 08:09:57;;;;;;;6.80;6.07;;;22.70;99.90;;;;;;10505943;28;20656;-80
2022/09/07 08:14:59;;;;;;;8.83;4.40;;;22.80;99.90;;;;;;10535253;22;20227;-81
2022/09/07 08:20:03;;;;;;;6.23;5.80;;;22.90;99.90;;;;;;10550158;28;20207;-80
2022/09/07 08:25:06;;;;;;;6.67;6.07;;;22.90;99.90;;;;;;10540985;28;20222;-81
2022/09/07 08:30:09;;;;;;;7.03;5.50;;;23.00;99.90;;;;;;10521968;28;20207;-81
2022/09/07 08:35:13;;;;;;;7.83;6.30;;;23.10;99.90;;;;;;10532617;28;20223;-81
2022/09/07 08:40:17;;;;;;;6.30;5.73;;;23.10;99.90;;;;;;10536469;28;20235;-80
2022/09/07 08:45:24;;;;;;;6.13;5.73;;;23.10;99.90;;;;;;10532171;28;20239;-80
2022/09/07 08:50:34;;;;;;;6.80;6.17;;;23.20;99.90;;;;;;10540831;28;20287;-79
2022/09/07 08:55:40;;;;;;;6.80;5.50;;;23.30;99.90;;;;;;10540036;28;20219;-82
2022/09/07 09:00:43;;;;;;;6.13;5.60;;;23.40;99.90;;;;;;10540425;28;20675;-82
2022/09/07 09:05:55;;;;;;;6.03;5.60;;;23.40;99.90;;;;;;10538378;28;20219;-81
2022/09/07 09:11:06;;;;;;;6.13;5.63;;;23.50;99.90;;;;;;10527838;28;20192;-81
2022/09/07 09:16:14;;;;;;;6.77;5.87;;;23.60;99.90;;;;;;10535344;28;20284;-81
2022/09/07 09:21:19;;;;;;;8.10;6.50;;;23.70;99.90;;;;;;10537582;28;20587;-81
2022/09/07 09:26:24;;;;;;;6.40;5.90;;;23.70;99.90;;;;;;10539880;28;20242;-82
2022/09/07 09:31:32;;;;;;;6.80;6.10;;;23.80;99.90;;;;;;10531541;28;20202;-81
2022/09/07 09:36:42;;;;;;;6.70;6.00;;;24.00;99.90;;;;;;10513064;28;20207;-81
2022/09/07 09:41:44;;;;;;;6.47;5.60;;;24.10;99.90;;;;;;10548558;28;20224;-81
2022/09/07 09:46:49;;;;;;;6.73;6.33;;;24.10;99.90;;;;;;10546447;28;20227;-81
2022/09/07 09:51:55;;;;;;;6.50;6.00;;;24.10;99.90;;;;;;10536077;28;20307;-82
2022/09/07 09:56:57;;;;;;;5.53;4.97;;;24.20;99.90;;;;;;10549059;28;20610;-82
2022/09/07 10:02:16;;;;;;;6.10;5.70;;;24.40;99.90;;;;;;10548487;28;20223;-82
2022/09/07 10:07:22;;;;;;;7.30;6.20;;;24.40;99.90;;;;;;10527531;28;20203;-80
2022/09/07 10:12:28;;;;;;;6.73;6.10;;;24.30;99.90;;;;;;10540796;28;20231;-79
2022/09/07 10:17:33;;;;;;;6.83;5.70;;;24.40;99.90;;;;;;10547899;28;20192;-81
2022/09/07 10:22:39;;;;;;;5.70;5.30;;;24.40;99.90;;;;;;10534288;28;20302;-81
2022/09/07 10:27:45;;;;;;;6.27;5.97;;;24.40;99.90;;;;;;10537719;28;20206;-81
2022/09/07 10:32:58;;;;;;;6.03;5.53;;;24.30;99.90;;;;;;10530389;28;20618;-82
2022/09/07 10:38:14;;;;;;;7.13;6.60;;;24.30;99.90;;;;;;10530118;28;20193;-82
2022/09/07 10:43:32;;;;;;;9.13;7.10;;;24.20;99.90;;;;;;10540228;28;20219;-81
2022/09/07 10:48:42;;;;;;;5.80;5.30;;;24.20;99.90;;;;;;10535460;28;20203;-80
2022/09/07 10:53:55;;;;;;;5.40;5.07;;;24.30;99.90;;;;;;10537481;28;20245;-82
2022/09/07 10:59:05;;;;;;;5.13;4.70;;;24.40;99.90;;;;;;10533454;28;20542;-81
2022/09/07 11:04:34;;;;;;;5.97;5.47;;;24.50;99.90;;;;;;10539545;28;20793;-82
2022/09/07 11:09:51;;;;;;;7.17;6.57;;;24.60;99.90;;;;;;10538814;28;20286;-78
2022/09/07 11:14:58;;;;;;;8.63;6.67;;;24.60;99.90;;;;;;10538526;28;20254;-80
2022/09/07 11:20:09;;;;;;;7.17;6.50;;;24.60;99.90;;;;;;10536637;28;20201;-78
2022/09/07 11:25:19;;;;;;;10.03;6.23;;;24.50;99.90;;;;;;10531247;28;20226;-81
2022/09/07 11:30:23;;;;;;;7.73;6.97;;;24.40;99.90;;;;;;10534663;28;20279;-82
2022/09/07 11:35:33;;;;;;;6.80;5.53;;;24.40;99.90;;;;;;10544049;28;20224;-82
2022/09/07 11:40:42;;;;;;;10.03;6.77;;;24.40;99.90;;;;;;10542156;28;20204;-82
2022/09/07 11:45:49;;;;;;;7.33;6.57;;;24.40;99.90;;;;;;10542240;28;20223;-82
2022/09/07 11:50:53;;;;;;;7.00;6.50;;;24.40;99.90;;;;;;10542146;28;20554;-82
2022/09/07 11:56:01;;;;;;;6.87;6.37;;;24.50;99.90;;;;;;10533766;28;20671;-81
2022/09/07 12:01:18;;;;;;;14.87;7.90;;;24.50;99.90;;;;;;10505914;28;20219;-83
2022/09/07 12:06:59;;;;;;;6.10;5.70;;;24.50;99.90;;;;;;10508477;28;20222;-82
2022/09/07 12:12:23;;;;;;;10.30;6.37;;;24.60;99.90;;;;;;10516231;28;20201;-83
2022/09/07 12:17:41;;;;;;;7.90;7.20;;;24.50;99.90;;;;;;10509576;28;20202;-82
2022/09/07 12:23:02;;;;;;;6.77;6.07;;;24.70;99.90;;;;;;10521738;28;20216;-80
2022/09/07 12:28:15;;;;;;;7.87;6.50;;;24.70;99.90;;;;;;10526572;28;20199;-81
2022/09/07 12:33:28;;;;;;;6.47;5.83;;;24.80;99.90;;;;;;10520113;28;20246;-83
2022/09/07 12:39:19;;;;;;;6.43;5.90;;;24.90;99.90;;;;;;10522722;28;20223;-81
2022/09/07 12:44:24;;;;;;;11.17;9.97;;;25.00;99.90;;;;;;10514010;28;20216;-82
2022/09/07 12:49:50;;;;;;;7.10;6.60;;;24.90;99.90;;;;;;10533174;28;20704;-83
2022/09/07 12:54:58;;;;;;;5.90;5.50;;;24.90;99.90;;;;;;10553199;28;20220;-82
2022/09/07 13:00:12;;;;;;;6.27;5.87;;;24.90;99.90;;;;;;10548956;28;20254;-81
2022/09/07 13:05:22;;;;;;;8.93;8.13;;;24.90;99.90;;;;;;10537241;28;20227;-82
2022/09/07 13:10:29;;;;;;;7.53;6.73;;;24.90;99.90;;;;;;10545003;28;20204;-82
2022/09/07 13:15:40;;;;;;;8.53;6.10;;;25.00;99.40;;;;;;10548033;28;20220;-81
2022/09/07 13:20:42;;;;;;;7.03;6.20;;;25.20;98.60;;;;;;10557584;28;20294;-82
2022/09/07 13:26:01;;;;;;;6.87;6.30;;;25.40;99.90;;;;;;10565670;28;20216;-81
2022/09/07 13:31:43;;;;;;;7.17;6.67;;;25.40;97.40;;;;;;10552710;28;20200;-82
2022/09/07 13:36:48;;;;;;;5.27;4.90;;;25.40;98.80;;;;;;10562731;28;20227;-82
2022/09/07 13:41:52;;;;;;;5.30;5.00;;;25.30;97.40;;;;;;10562996;28;20200;-81
2022/09/07 13:47:06;;;;;;;4.93;4.47;;;25.30;96.50;;;;;;10551710;28;20298;-83
2022/09/07 13:52:15;;;;;;;6.90;6.00;;;25.30;98.00;;;;;;10548286;28;20268;-82
2022/09/07 13:57:24;;;;;;;8.93;5.43;;;25.30;96.80;;;;;;10536709;28;20577;-82
2022/09/07 14:02:31;;;;;;;6.13;5.73;;;25.20;98.60;;;;;;10519313;28;20227;-81
2022/09/07 14:07:33;;;;;;;5.20;4.90;;;25.10;98.80;;;;;;10539225;28;20203;-81
2022/09/07 14:12:42;;;;;;;6.00;5.47;;;25.00;98.20;;;;;;10530970;28;20230;-82
2022/09/07 14:17:47;;;;;;;6.20;5.70;;;25.00;97.30;;;;;;10520519;28;20193;-80
2022/09/07 14:22:49;;;;;;;6.33;5.83;;;25.00;96.60;;;;;;10520261;28;20214;-80
2022/09/07 14:27:51;;;;;;;6.20;5.60;;;25.00;96.50;;;;;;10517147;28;20211;-82
2022/09/07 14:32:57;;;;;;;5.47;5.17;;;25.00;96.20;;;;;;10512271;28;20212;-82
2022/09/07 14:38:06;;;;;;;5.77;5.37;;;25.00;96.50;;;;;;10487979;28;20200;-81
2022/09/07 14:43:27;;;;;;;5.37;3.87;;;25.00;96.90;;;;;;10509839;28;20228;-82
2022/09/07 14:48:30;;;;;;;5.47;4.97;;;24.90;97.70;;;;;;10491714;28;20282;-81
2022/09/07 14:53:33;;;;;;;6.27;5.77;;;24.90;97.80;;;;;;10508188;28;20306;-81
2022/09/07 14:58:35;;;;;;;5.70;5.30;;;25.00;97.60;;;;;;10503132;28;20199;-81
2022/09/07 15:03:54;;;;;;;8.43;7.00;;;25.10;97.00;;;;;;10515828;28;20303;-82
2022/09/07 15:08:56;;;;;;;5.30;4.90;;;25.10;96.20;;;;;;10505167;28;20287;-81
2022/09/07 15:14:00;;;;;;;5.00;4.60;;;25.40;95.30;;;;;;10505764;28;20212;-81
2022/09/07 15:19:22;;;;;;;4.17;3.77;;;25.50;95.20;;;;;;10507064;28;20189;-80
2022/09/07 15:24:24;;;;;;;4.53;4.10;;;25.50;95.40;;;;;;10508156;28;20528;-80
2022/09/07 15:29:26;;;;;;;5.63;5.30;;;25.40;95.60;;;;;;10519720;28;20203;-79
2022/09/07 15:34:31;;;;;;;4.87;4.33;;;25.40;95.70;;;;;;10533616;28;20303;-80
2022/09/07 15:39:33;;;;;;;4.57;4.27;;;25.30;95.80;;;;;;10500642;28;20192;-80
2022/09/07 15:44:35;;;;;;;5.57;5.00;;;25.30;95.30;;;;;;10509785;28;20684;-80
2022/09/07 15:49:40;;;;;;;3.90;2.60;;;25.30;95.00;;;;;;10512517;28;20874;-79
2022/09/07 15:54:42;;;;;;;4.80;4.20;;;25.30;95.30;;;;;;10534245;28;20255;-80
2022/09/07 15:59:44;;;;;;;4.67;4.37;;;25.40;94.70;;;;;;10526416;28;20215;-80
2022/09/07 16:04:47;;;;;;;5.40;5.10;;;25.40;95.10;;;;;;10531695;28;20699;-80
2022/09/07 16:09:49;;;;;;;3.00;2.80;;;25.40;95.50;;;;;;10527336;28;20200;-80
2022/09/07 16:14:52;;;;;;;4.87;4.47;;;25.40;95.10;;;;;;10512732;28;20220;-80
2022/09/07 16:19:55;;;;;;;10.50;4.83;;;25.40;95.60;;;;;;10524318;28;20203;-80
2022/09/07 16:24:57;;;;;;;5.80;5.40;;;25.40;94.80;;;;;;10536194;28;20435;-80
2022/09/07 16:29:59;;;;;;;4.00;3.70;;;25.30;95.00;;;;;;10538297;28;20208;-80
2022/09/07 16:35:03;;;;;;;6.50;5.20;;;25.20;94.40;;;;;;10532149;28;20278;-79
2022/09/07 16:40:06;;;;;;;6.03;4.90;;;25.10;94.80;;;;;;10529726;28;20200;-80
2022/09/07 16:45:09;;;;;;;5.53;5.03;;;25.00;95.50;;;;;;10515110;28;20284;-79
2022/09/07 16:50:12;;;;;;;5.10;4.90;;;24.90;94.90;;;;;;10517890;28;20213;-80
2022/09/07 16:55:14;;;;;;;5.07;4.80;;;24.80;95.60;;;;;;10534995;28;20224;-80
2022/09/07 17:00:17;;;;;;;9.40;4.87;;;24.80;96.20;;;;;;10532023;28;20199;-79
2022/09/07 17:05:20;;;;;;;4.70;4.20;;;24.70;95.50;;;;;;10535187;28;20219;-80
2022/09/07 17:10:22;;;;;;;4.20;4.00;;;24.60;96.40;;;;;;10538700;28;20196;-79
2022/09/07 17:15:24;;;;;;;5.20;4.80;;;24.50;97.80;;;;;;10532498;28;20216;-80
2022/09/07 17:20:28;;;;;;;6.17;4.67;;;24.40;96.10;;;;;;10531685;28;20277;-79
2022/09/07 17:25:30;;;;;;;5.60;5.10;;;24.30;96.60;;;;;;10532364;28;20236;-80
2022/09/07 17:30:33;;;;;;;5.87;4.80;;;24.20;97.30;;;;;;10539339;28;20652;-79
2022/09/07 17:35:37;;;;;;;5.13;4.63;;;24.20;97.50;;;;;;10531402;28;20288;-80
2022/09/07 17:40:39;;;;;;;4.80;4.43;;;24.10;96.90;;;;;;10542073;28;20231;-80
2022/09/07 17:45:41;;;;;;;4.70;4.33;;;24.00;98.20;;;;;;10533306;28;20212;-80
2022/09/07 17:50:44;;;;;;;7.33;4.87;;;24.00;98.50;;;;;;10533917;28;20255;-80
2022/09/07 17:55:46;;;;;;;5.83;5.33;;;23.90;98.80;;;;;;10514791;28;20223;-80
2022/09/07 18:00:48;;;;;;;5.33;4.83;;;23.90;99.50;;;;;;10535427;28;20206;-79
2022/09/07 18:05:54;;;;;;;7.97;5.23;;;23.90;99.40;;;;;;10518698;28;20282;-80
2022/09/07 18:11:04;;;;;;;5.20;4.90;;;23.90;99.70;;;;;;10534274;28;20234;-79
2022/09/07 18:16:14;;;;;;;4.90;4.60;;;23.80;99.00;;;;;;10539099;28;20227;-79
2022/09/07 18:21:20;;;;;;;4.47;4.17;;;23.80;99.50;;;;;;10510362;28;20593;-79
2022/09/07 18:26:23;;;;;;;4.93;4.53;;;23.80;99.90;;;;;;10511793;28;20320;-80
2022/09/07 18:31:26;;;;;;;5.13;4.57;;;23.70;99.90;;;;;;10524229;28;20197;-80
2022/09/07 18:36:29;;;;;;;5.10;4.80;;;23.70;99.90;;;;;;10527876;28;20319;-81
2022/09/07 18:41:33;;;;;;;4.33;4.03;;;23.60;99.90;;;;;;10529599;28;20566;-80
2022/09/07 18:46:35;;;;;;;5.47;5.17;;;23.50;99.90;;;;;;10541711;28;20635;-80
2022/09/07 18:51:38;;;;;;;6.20;5.70;;;23.40;99.90;;;;;;10534676;28;20336;-80
2022/09/07 18:56:40;;;;;;;4.67;4.37;;;23.40;99.90;;;;;;10528827;28;20279;-80
2022/09/07 19:01:42;;;;;;;4.93;4.63;;;23.30;99.90;;;;;;10538296;28;20202;-79
2022/09/07 19:06:46;;;;;;;5.07;4.77;;;23.30;99.90;;;;;;10533048;28;20668;-79
2022/09/07 19:11:48;;;;;;;5.63;5.13;;;23.20;99.90;;;;;;10532392;28;20228;-79
2022/09/07 19:16:50;;;;;;;4.90;4.60;;;23.10;99.90;;;;;;10526056;28;20302;-79
2022/09/07 19:21:56;;;;;;;4.57;4.27;;;23.10;99.90;;;;;;10526427;28;20200;-79
2022/09/07 19:26:58;;;;;;;3.97;3.70;;;23.10;99.90;;;;;;10530571;28;20659;-79
2022/09/07 19:32:06;;;;;;;4.10;3.90;;;23.00;99.90;;;;;;10518845;28;20283;-82
2022/09/07 19:37:12;;;;;;;3.23;3.03;;;23.00;99.90;;;;;;10526519;28;20230;-80
2022/09/07 19:42:14;;;;;;;5.07;4.63;;;22.90;99.90;;;;;;10529505;28;20762;-79
2022/09/07 19:47:16;;;;;;;4.03;3.83;;;22.90;99.90;;;;;;10533201;28;20224;-81
2022/09/07 19:52:19;;;;;;;5.20;4.20;;;22.90;99.90;;;;;;10527775;28;20326;-79
2022/09/07 19:57:21;;;;;;;3.70;3.40;;;22.90;99.90;;;;;;10523695;28;20212;-80
2022/09/07 20:02:23;;;;;;;3.40;3.20;;;22.80;99.90;;;;;;10540585;28;20244;-79
2022/09/07 20:07:27;;;;;;;3.93;3.63;;;22.80;99.90;;;;;;10530793;28;20258;-79
2022/09/07 20:12:29;;;;;;;3.77;3.57;;;22.70;99.90;;;;;;10534760;28;20441;-80
2022/09/07 20:17:31;;;;;;;4.10;3.80;;;22.70;99.50;;;;;;10531842;28;20371;-80
2022/09/07 20:22:34;;;;;;;4.47;4.20;;;22.60;99.20;;;;;;10541691;28;20278;-79
2022/09/07 20:27:36;;;;;;;3.60;3.40;;;22.50;99.80;;;;;;10524591;28;20260;-80
2022/09/07 20:32:38;;;;;;;4.00;3.70;;;22.40;99.60;;;;;;10536956;28;20217;-80
2022/09/07 20:37:42;;;;;;;4.03;3.83;;;22.40;99.50;;;;;;10493801;28;20731;-81
2022/09/07 20:42:44;;;;;;;3.90;3.70;;;22.40;99.00;;;;;;10534421;28;20215;-81
2022/09/07 20:47:46;;;;;;;3.47;3.27;;;22.30;99.70;;;;;;10541861;28;20218;-81
2022/09/07 20:52:50;;;;;;;4.63;3.67;;;22.20;99.10;;;;;;10545656;28;20598;-81
2022/09/07 20:57:52;;;;;;;3.67;3.37;;;22.10;98.50;;;;;;10537068;28;20212;-81
2022/09/07 21:02:55;;;;;;;4.10;3.90;;;22.10;99.10;;;;;;10539899;28;20212;-81
2022/09/07 21:07:59;;;;;;;3.80;3.60;;;22.00;99.40;;;;;;10531801;28;20192;-81
2022/09/07 21:13:01;;;;;;;4.20;3.97;;;22.00;99.90;;;;;;10541660;28;20216;-81
2022/09/07 21:18:03;;;;;;;4.27;3.97;;;22.00;99.10;;;;;;10540660;28;20215;-81
2022/09/07 21:23:06;;;;;;;4.23;3.93;;;22.00;99.10;;;;;;10534660;28;20223;-80
2022/09/07 21:28:08;;;;;;;4.23;3.93;;;22.00;99.20;;;;;;10538758;28;20196;-80
2022/09/07 21:33:10;;;;;;;4.07;3.87;;;21.90;99.90;;;;;;10541403;28;20322;-81
2022/09/07 21:38:14;;;;;;;4.20;4.00;;;21.90;99.70;;;;;;10541443;28;20269;-81
2022/09/07 21:43:16;;;;;;;4.50;4.20;;;21.90;99.60;;;;;;10548717;28;20246;-81
2022/09/07 21:48:18;;;;;;;4.53;4.23;;;21.90;99.50;;;;;;10550257;28;20204;-81
2022/09/07 21:53:22;;;;;;;4.60;4.20;;;21.90;99.90;;;;;;10551724;28;20220;-81
2022/09/07 21:58:24;;;;;;;4.57;4.20;;;21.90;99.90;;;;;;10555794;28;20227;-80
2022/09/07 22:03:26;;;;;;;4.23;3.83;;;22.00;99.90;;;;;;10551492;28;20765;-81
2022/09/07 22:08:30;;;;;;;4.30;4.10;;;22.00;99.90;;;;;;10561809;28;20340;-80
2022/09/07 22:13:32;;;;;;;5.33;3.90;;;22.00;99.90;;;;;;10549902;28;20304;-80
2022/09/07 22:18:36;;;;;;;4.43;4.03;;;22.00;99.90;;;;;;10525202;28;20251;-80
2022/09/07 22:23:42;;;;;;;4.93;4.60;;;22.00;99.90;;;;;;10548018;28;20211;-81
2022/09/07 22:28:44;;;;;;;4.97;4.60;;;22.00;99.90;;;;;;10546128;28;20199;-80
2022/09/07 22:33:47;;;;;;;4.20;4.00;;;22.00;99.90;;;;;;10533413;28;20311;-80
2022/09/07 22:38:53;;;;;;;5.63;5.37;;;22.00;99.90;;;;;;10509895;28;20596;-81
2022/09/07 22:43:55;;;;;;;6.57;5.43;;;22.00;99.90;;;;;;10496856;28;20249;-81
2022/09/07 22:48:58;;;;;;;5.50;5.20;;;22.10;99.90;;;;;;10522250;28;20192;-81
2022/09/07 22:54:02;;;;;;;7.10;5.30;;;22.00;99.90;;;;;;10517440;28;20771;-81
2022/09/07 22:59:07;;;;;;;5.17;4.77;;;22.00;99.90;;;;;;10523937;28;20199;-81
2022/09/07 23:04:11;;;;;;;4.70;4.40;;;22.10;99.90;;;;;;10515548;28;20263;-81
2022/09/07 23:09:17;;;;;;;4.83;4.30;;;22.00;99.90;;;;;;10527340;28;20737;-81
2022/09/07 23:14:21;;;;;;;4.80;4.50;;;22.00;99.90;;;;;;10523524;28;20234;-81
2022/09/07 23:19:23;;;;;;;5.13;4.40;;;22.10;99.90;;;;;;10524298;28;20189;-81
2022/09/07 23:24:27;;;;;;;6.33;5.83;;;22.00;99.90;;;;;;10511382;28;20209;-80
2022/09/07 23:29:29;;;;;;;5.00;4.70;;;21.90;99.90;;;;;;10530140;28;20596;-81
2022/09/07 23:34:31;;;;;;;4.53;4.20;;;21.90;99.90;;;;;;10526538;28;20212;-81
2022/09/07 23:39:34;;;;;;;5.80;5.30;;;21.70;99.90;;;;;;10524400;28;20753;-81
2022/09/07 23:44:36;;;;;;;4.93;4.57;;;21.70;99.90;;;;;;10494509;28;20207;-80
2022/09/07 23:49:38;;;;;;;6.40;5.77;;;21.70;99.90;;;;;;10510606;28;20231;-81
2022/09/07 23:54:42;;;;;;;4.80;4.50;;;21.70;99.90;;;;;;10508578;28;20219;-81
2022/09/07 23:59:44;;;;;;;5.77;4.80;;;21.70;99.90;;;;;;10512316;28;20467;-82
